createdAt,value
2023-05-24T00:01:12.905Z,21.26
2023-05-24T00:03:40.744Z,21.25
2023-05-24T00:06:08.743Z,21.23
2023-05-24T00:08:36.432Z,21.22
2023-05-24T00:11:04.257Z,21.20
2023-05-24T00:13:31.959Z,21.18
2023-05-24T00:15:59.594Z,21.16
2023-05-24T00:18:27.316Z,21.17
2023-05-24T00:20:57.431Z,21.13
2023-05-24T00:23:25.757Z,21.09
2023-05-24T00:25:53.667Z,21.09
2023-05-24T00:28:21.789Z,21.10
2023-05-24T00:30:51.460Z,21.11
2023-05-24T00:33:19.129Z,21.17
2023-05-24T00:35:46.806Z,21.20
2023-05-24T00:38:15.374Z,20.97
2023-05-24T00:40:43.284Z,20.89
2023-05-24T00:43:11.216Z,20.86
2023-05-24T00:45:38.828Z,20.86
2023-05-24T00:48:06.675Z,20.85
2023-05-24T00:50:35.463Z,20.83
2023-05-24T00:53:03.211Z,20.79
2023-05-24T00:55:31.232Z,20.75
2023-05-24T00:57:59.108Z,20.70
2023-05-24T01:00:27.636Z,20.71
2023-05-24T01:02:55.490Z,20.73
2023-05-24T01:05:23.939Z,20.75
2023-05-24T01:08:04.872Z,20.79
2023-05-24T01:10:45.515Z,20.82
2023-05-24T01:13:39.288Z,20.82
2023-05-24T01:16:18.382Z,20.86
2023-05-24T01:18:48.038Z,20.95
2023-05-24T01:21:31.149Z,20.90
2023-05-24T01:24:14.640Z,20.95
2023-05-24T01:27:05.618Z,20.95
2023-05-24T01:29:37.615Z,21.00
2023-05-24T01:32:05.853Z,20.99
2023-05-24T01:34:33.545Z,21.03
2023-05-24T01:37:01.229Z,20.99
2023-05-24T01:39:29.762Z,20.98
2023-05-24T01:42:17.791Z,20.98
2023-05-24T01:45:03.439Z,21.00
2023-05-24T01:47:53.219Z,20.95
2023-05-24T01:50:25.928Z,20.96
2023-05-24T01:52:53.948Z,20.92
2023-05-24T01:55:21.931Z,20.90
2023-05-24T01:57:49.732Z,20.88
2023-05-24T02:00:18.858Z,20.86
2023-05-24T02:02:46.742Z,20.91
2023-05-24T02:05:14.758Z,20.92
2023-05-24T02:07:42.930Z,20.94
2023-05-24T02:10:11.177Z,20.98
2023-05-24T02:12:38.888Z,21.01
2023-05-24T02:15:08.394Z,21.00
2023-05-24T02:17:37.310Z,21.03
2023-05-24T02:20:05.757Z,21.07
2023-05-24T02:22:33.501Z,21.08
2023-05-24T02:25:01.211Z,21.09
2023-05-24T02:27:28.970Z,21.15
2023-05-24T02:29:57.778Z,21.21
2023-05-24T02:32:25.629Z,21.30
2023-05-24T02:34:53.529Z,21.35
2023-05-24T02:37:21.346Z,21.38
2023-05-24T02:39:49.023Z,21.38
2023-05-24T02:42:16.723Z,21.49
2023-05-24T02:44:48.161Z,21.57
2023-05-24T02:47:16.156Z,21.64
2023-05-24T02:49:43.927Z,21.70
2023-05-24T02:52:11.754Z,21.79
2023-05-24T02:54:39.986Z,21.87
2023-05-24T02:57:07.800Z,21.94
2023-05-24T02:59:36.570Z,22.00
2023-05-24T03:02:04.746Z,22.05
2023-05-24T03:04:32.627Z,22.12
2023-05-24T03:07:00.896Z,22.22
2023-05-24T03:09:28.682Z,22.35
2023-05-24T03:11:56.407Z,22.62
2023-05-24T03:14:25.225Z,22.88
2023-05-24T03:16:53.012Z,22.99
2023-05-24T03:19:20.824Z,23.25
2023-05-24T03:21:48.967Z,23.54
2023-05-24T03:24:17.115Z,23.74
2023-05-24T03:26:45.367Z,23.95
2023-05-24T03:29:13.475Z,24.21
2023-05-24T03:31:42.446Z,24.31
2023-05-24T03:34:10.484Z,24.46
2023-05-24T03:36:39.334Z,24.62
2023-05-24T03:39:08.078Z,24.86
2023-05-24T03:41:48.668Z,25.08
2023-05-24T03:44:16.860Z,25.45
2023-05-24T03:46:44.752Z,25.64
2023-05-24T03:49:12.489Z,25.71
2023-05-24T03:51:42.470Z,25.72
2023-05-24T03:54:10.346Z,25.72
2023-05-24T03:56:38.721Z,25.91
2023-05-24T03:59:06.625Z,26.32
2023-05-24T04:01:36.819Z,26.86
2023-05-24T04:04:04.688Z,27.48
2023-05-24T04:06:32.507Z,27.79
2023-05-24T04:09:01.198Z,28.52
2023-05-24T04:11:30.326Z,28.91
2023-05-24T04:14:00.894Z,29.27
2023-05-24T04:16:29.417Z,29.53
2023-05-24T04:18:58.254Z,29.68
2023-05-24T04:21:26.409Z,29.59
2023-05-24T04:23:56.403Z,29.56
2023-05-24T04:26:24.146Z,29.62
2023-05-24T04:28:51.886Z,29.31
2023-05-24T04:31:20.580Z,28.88
2023-05-24T04:33:48.808Z,28.85
2023-05-24T04:36:17.974Z,29.13
2023-05-24T04:38:46.558Z,29.66
2023-05-24T04:41:14.506Z,30.02
2023-05-24T04:43:42.233Z,30.15
2023-05-24T04:46:10.328Z,30.32
2023-05-24T04:48:38.179Z,30.53
2023-05-24T04:51:05.958Z,30.87
2023-05-24T04:53:33.932Z,31.19
2023-05-24T04:56:01.794Z,31.30
2023-05-24T04:58:29.775Z,31.64
2023-05-24T05:00:57.642Z,31.91
2023-05-24T05:03:25.766Z,32.14
2023-05-24T05:05:53.684Z,32.24
2023-05-24T05:08:22.061Z,32.43
2023-05-24T05:10:50.034Z,32.67
2023-05-24T05:13:17.791Z,32.92
2023-05-24T05:15:45.738Z,32.93
2023-05-24T05:18:13.606Z,32.61
2023-05-24T05:20:41.800Z,32.70
2023-05-24T05:23:10.104Z,32.97
2023-05-24T05:25:37.947Z,33.28
2023-05-24T05:28:05.847Z,33.43
2023-05-24T05:30:33.662Z,33.56
2023-05-24T05:33:01.780Z,33.67
2023-05-24T05:35:29.689Z,33.67
2023-05-24T05:37:57.530Z,33.63
2023-05-24T05:40:25.399Z,33.49
2023-05-24T05:42:53.185Z,33.57
2023-05-24T05:45:21.326Z,33.23
2023-05-24T05:47:49.349Z,32.90
2023-05-24T05:50:17.421Z,32.72
2023-05-24T05:52:45.286Z,32.33
2023-05-24T05:55:13.102Z,32.08
2023-05-24T05:57:41.220Z,32.15
2023-05-24T06:00:10.023Z,32.67
2023-05-24T06:02:40.628Z,32.96
2023-05-24T06:05:09.163Z,33.29
2023-05-24T06:07:38.491Z,33.11
2023-05-24T06:10:07.429Z,32.81
2023-05-24T06:12:35.257Z,32.92
2023-05-24T06:15:03.098Z,33.49
2023-05-24T06:17:31.215Z,34.01
2023-05-24T06:20:00.622Z,34.18
2023-05-24T06:22:30.081Z,34.36
2023-05-24T06:24:58.043Z,34.29
2023-05-24T06:27:26.049Z,34.54
2023-05-24T06:29:53.873Z,34.23
2023-05-24T06:32:22.108Z,33.64
2023-05-24T06:34:50.171Z,33.01
2023-05-24T06:37:18.102Z,32.41
2023-05-24T06:39:46.481Z,31.91
2023-05-24T06:42:14.434Z,31.96
2023-05-24T06:44:46.986Z,32.33
2023-05-24T06:47:15.426Z,32.69
2023-05-24T06:49:43.615Z,32.63
2023-05-24T06:52:11.754Z,32.03
2023-05-24T06:54:40.280Z,31.60
2023-05-24T06:57:09.144Z,31.23
2023-05-24T06:59:37.520Z,31.35
2023-05-24T07:02:05.493Z,31.81
2023-05-24T07:04:33.293Z,31.87
2023-05-24T07:07:01.423Z,31.42
2023-05-24T07:09:29.296Z,31.30
2023-05-24T07:11:57.139Z,31.71
2023-05-24T07:14:27.567Z,32.14
2023-05-24T07:17:00.121Z,32.32
2023-05-24T07:19:29.947Z,32.41
2023-05-24T07:21:58.233Z,32.01
2023-05-24T07:24:26.158Z,31.51
2023-05-24T07:26:54.052Z,30.94
2023-05-24T07:29:22.126Z,30.56
2023-05-24T07:31:49.903Z,30.19
2023-05-24T07:34:20.844Z,29.80
2023-05-24T07:36:49.808Z,29.58
2023-05-24T07:39:17.651Z,29.41
2023-05-24T07:41:46.824Z,29.31
2023-05-24T07:44:15.222Z,29.31
2023-05-24T07:46:43.096Z,29.37
2023-05-24T07:49:11.312Z,29.35
2023-05-24T07:51:39.389Z,29.37
2023-05-24T07:54:07.435Z,29.06
2023-05-24T07:56:35.164Z,28.60
2023-05-24T07:59:07.085Z,28.55
2023-05-24T08:01:35.563Z,28.53
2023-05-24T08:04:06.472Z,28.41
2023-05-24T08:06:35.338Z,28.22
2023-05-24T08:09:04.672Z,28.06
2023-05-24T08:11:32.549Z,27.96
2023-05-24T08:14:00.417Z,27.94
2023-05-24T08:16:28.355Z,27.90
2023-05-24T08:18:56.293Z,27.84
2023-05-24T08:21:24.058Z,27.86
2023-05-24T08:23:51.914Z,28.10
2023-05-24T08:26:21.187Z,28.30
2023-05-24T08:28:49.120Z,28.49
2023-05-24T08:31:17.371Z,29.23
2023-05-24T08:33:45.855Z,29.71
2023-05-24T08:36:13.705Z,30.46
2023-05-24T08:38:41.666Z,31.28
2023-05-24T08:41:11.529Z,31.80
2023-05-24T08:43:39.518Z,32.06
2023-05-24T08:46:07.732Z,32.41
2023-05-24T08:48:47.370Z,32.84
2023-05-24T08:51:16.344Z,33.02
2023-05-24T08:53:48.875Z,32.71
2023-05-24T08:56:17.939Z,32.63
2023-05-24T08:58:47.490Z,33.06
2023-05-24T09:01:15.670Z,33.08
2023-05-24T09:03:44.032Z,32.81
2023-05-24T09:06:12.413Z,32.28
2023-05-24T09:08:43.621Z,32.15
2023-05-24T09:11:11.946Z,31.91
2023-05-24T09:13:39.760Z,31.77
2023-05-24T09:16:07.776Z,32.00
2023-05-24T09:18:35.425Z,32.29
2023-05-24T09:21:03.149Z,32.52
2023-05-24T09:23:30.854Z,32.69
2023-05-24T09:25:58.681Z,32.90
2023-05-24T09:28:26.272Z,32.33
2023-05-24T09:31:07.513Z,32.48
2023-05-24T09:33:35.869Z,31.83
2023-05-24T09:36:04.981Z,31.52
2023-05-24T09:38:33.462Z,31.25
2023-05-24T09:41:11.164Z,30.93
2023-05-24T09:43:48.539Z,30.48
2023-05-24T09:46:22.595Z,30.17
2023-05-24T09:49:04.099Z,30.11
2023-05-24T09:51:32.689Z,29.97
2023-05-24T09:54:03.787Z,29.77
2023-05-24T09:56:33.386Z,29.60
2023-05-24T09:59:09.024Z,29.47
2023-05-24T10:01:37.036Z,29.38
2023-05-24T10:04:09.932Z,29.21
2023-05-24T10:06:38.780Z,29.00
2023-05-24T10:09:07.351Z,28.81
2023-05-24T10:11:37.288Z,28.49
2023-05-24T10:14:07.474Z,28.24
2023-05-24T10:16:38.276Z,28.07
2023-05-24T10:19:07.548Z,27.67
2023-05-24T10:21:37.908Z,27.13
2023-05-24T10:24:08.848Z,27.01
2023-05-24T10:26:37.274Z,26.83
2023-05-24T10:29:07.929Z,26.49
2023-05-24T10:31:38.480Z,26.23
2023-05-24T10:34:08.710Z,26.01
2023-05-24T10:36:40.263Z,26.00
2023-05-24T10:39:12.781Z,25.93
2023-05-24T10:41:43.586Z,25.78
2023-05-24T10:44:13.578Z,25.49
2023-05-24T10:47:11.133Z,25.49
2023-05-24T10:49:49.171Z,25.37
2023-05-24T10:52:16.994Z,25.13
2023-05-24T10:55:14.600Z,24.87
2023-05-24T10:57:42.539Z,24.59
2023-05-24T11:03:04.441Z,25.16
2023-05-24T11:05:36.713Z,25.15
2023-05-24T11:08:06.126Z,24.99
2023-05-24T11:10:35.073Z,25.07
2023-05-24T11:13:04.330Z,25.21
2023-05-24T11:15:32.168Z,25.41
2023-05-24T11:18:10.129Z,25.64
2023-05-24T11:20:38.412Z,25.84
2023-05-24T11:23:09.739Z,25.92
2023-05-24T11:25:38.471Z,26.18
2023-05-24T11:28:11.177Z,26.48
2023-05-24T11:30:43.887Z,26.67
2023-05-24T11:33:18.985Z,26.80
2023-05-24T11:35:47.344Z,26.58
2023-05-24T11:38:15.877Z,26.71
2023-05-24T11:40:44.948Z,26.94
2023-05-24T11:43:22.297Z,27.21
2023-05-24T11:45:50.388Z,27.35
2023-05-24T11:48:19.221Z,27.28
2023-05-24T11:50:50.422Z,27.13
2023-05-24T11:53:19.576Z,27.02
2023-05-24T11:55:48.990Z,26.83
2023-05-24T11:58:17.347Z,26.94
2023-05-24T12:00:45.209Z,27.25
2023-05-24T12:03:13.478Z,27.90
2023-05-24T12:05:41.495Z,28.29
2023-05-24T12:08:12.513Z,28.41
2023-05-24T12:10:42.359Z,27.81
2023-05-24T12:13:24.609Z,27.99
2023-05-24T12:15:56.310Z,28.23
2023-05-24T12:18:26.606Z,28.20
2023-05-24T12:20:54.835Z,28.36
2023-05-24T12:23:29.791Z,28.41
2023-05-24T12:26:01.572Z,28.31
2023-05-24T12:28:36.498Z,28.31
2023-05-24T12:31:05.057Z,28.45
2023-05-24T12:33:33.475Z,28.43
2023-05-24T12:36:01.407Z,28.38
2023-05-24T12:38:29.304Z,28.18
2023-05-24T12:41:08.191Z,28.10
2023-05-24T12:43:41.182Z,28.22
2023-05-24T12:46:08.978Z,28.26
2023-05-24T12:48:37.250Z,28.38
2023-05-24T12:51:05.029Z,28.19
2023-05-24T12:53:32.963Z,28.21
2023-05-24T12:56:00.934Z,28.34
2023-05-24T12:58:29.278Z,28.54
2023-05-24T13:00:57.189Z,28.60
2023-05-24T13:03:25.057Z,28.33
2023-05-24T13:05:53.193Z,28.14
2023-05-24T13:08:21.430Z,27.75
2023-05-24T13:10:51.097Z,27.64
2023-05-24T13:13:18.963Z,27.67
2023-05-24T13:15:47.736Z,27.86
2023-05-24T13:18:16.423Z,28.01
2023-05-24T13:20:44.497Z,27.91
2023-05-24T13:23:13.302Z,27.82
2023-05-24T13:25:41.103Z,27.70
2023-05-24T13:28:08.965Z,27.27
2023-05-24T13:30:37.153Z,27.46
2023-05-24T13:33:05.195Z,27.75
2023-05-24T13:35:33.156Z,28.08
2023-05-24T13:38:01.042Z,28.02
2023-05-24T13:40:29.056Z,27.89
2023-05-24T13:42:57.451Z,27.98
2023-05-24T13:45:25.652Z,27.67
2023-05-24T13:47:54.154Z,27.48
2023-05-24T13:50:24.033Z,27.49
2023-05-24T13:52:51.943Z,27.58
2023-05-24T13:55:20.396Z,27.70
2023-05-24T13:57:51.596Z,27.58
2023-05-24T14:00:20.697Z,27.64
2023-05-24T14:02:49.006Z,27.80
2023-05-24T14:07:47.723Z,28.02
2023-05-24T14:10:16.599Z,28.19
2023-05-24T14:12:47.921Z,28.18
2023-05-24T14:15:19.297Z,28.02
2023-05-24T14:17:47.090Z,28.10
2023-05-24T14:20:15.042Z,28.26
2023-05-24T14:22:42.907Z,28.37
2023-05-24T14:25:10.769Z,28.31
2023-05-24T14:27:38.862Z,28.25
2023-05-24T14:30:08.511Z,28.18
2023-05-24T14:32:36.319Z,28.11
2023-05-24T14:35:05.054Z,28.05
2023-05-24T14:37:32.797Z,28.10
2023-05-24T14:40:01.069Z,28.15
2023-05-24T14:42:28.965Z,28.14
2023-05-24T14:44:56.874Z,28.17
2023-05-24T14:47:24.978Z,28.13
2023-05-24T14:49:53.534Z,28.18
2023-05-24T14:52:21.657Z,28.14
2023-05-24T14:54:49.420Z,28.08
2023-05-24T14:57:17.407Z,28.04
2023-05-24T14:59:45.315Z,27.95
2023-05-24T15:02:13.192Z,27.88
2023-05-24T15:04:41.377Z,27.83
2023-05-24T15:07:10.536Z,27.72
2023-05-24T15:09:38.568Z,27.71
2023-05-24T15:12:07.884Z,27.63
2023-05-24T15:14:35.843Z,27.55
2023-05-24T15:17:03.759Z,27.46
2023-05-24T15:19:31.719Z,27.42
2023-05-24T15:22:00.115Z,27.20
2023-05-24T15:24:27.986Z,27.18
2023-05-24T15:26:55.870Z,27.21
2023-05-24T15:29:23.947Z,27.10
2023-05-24T15:31:51.766Z,26.98
2023-05-24T15:34:20.952Z,26.77
2023-05-24T15:36:50.819Z,26.81
2023-05-24T15:39:19.416Z,26.56
2023-05-24T15:41:47.306Z,26.33
2023-05-24T15:44:15.068Z,26.25
2023-05-24T15:46:43.793Z,26.35
2023-05-24T15:49:11.655Z,26.46
2023-05-24T15:54:10.558Z,26.61
2023-05-24T15:56:38.450Z,26.51
2023-05-24T15:59:06.456Z,26.39
2023-05-24T16:01:34.317Z,26.43
2023-05-24T16:04:02.395Z,26.52
2023-05-24T16:06:30.230Z,26.58
2023-05-24T16:08:58.364Z,26.59
2023-05-24T16:11:26.259Z,26.65
2023-05-24T16:13:54.945Z,26.66
2023-05-24T16:16:23.936Z,26.66
2023-05-24T16:18:51.794Z,26.69
2023-05-24T16:21:19.775Z,26.74
2023-05-24T16:23:47.802Z,26.79
2023-05-24T16:26:15.816Z,26.83
2023-05-24T16:28:44.408Z,26.85
2023-05-24T16:31:12.360Z,26.82
2023-05-24T16:33:40.229Z,26.74
2023-05-24T16:36:08.280Z,26.58
2023-05-24T16:38:38.246Z,26.52
2023-05-24T16:41:06.543Z,26.47
2023-05-24T16:43:34.715Z,26.47
2023-05-24T16:46:02.609Z,26.46
2023-05-24T16:48:31.887Z,26.39
2023-05-24T16:51:00.069Z,26.36
2023-05-24T16:53:28.118Z,26.32
2023-05-24T16:55:56.501Z,26.26
2023-05-24T16:58:25.829Z,26.22
2023-05-24T17:00:54.731Z,26.14
2023-05-24T17:03:28.419Z,26.05
2023-05-24T17:06:01.978Z,25.95
2023-05-24T17:08:35.819Z,25.89
2023-05-24T17:11:04.226Z,25.86
2023-05-24T17:13:32.386Z,25.73
2023-05-24T17:16:00.813Z,25.71
2023-05-24T17:18:29.493Z,25.58
2023-05-24T17:20:59.061Z,25.49
2023-05-24T17:23:27.840Z,25.45
2023-05-24T17:25:56.009Z,25.38
2023-05-24T17:28:27.895Z,25.30
2023-05-24T17:30:57.159Z,25.21
2023-05-24T17:33:26.096Z,25.27
2023-05-24T17:35:56.825Z,25.33
2023-05-24T17:38:25.320Z,25.20
2023-05-24T17:40:59.916Z,25.20
2023-05-24T17:43:33.059Z,25.21
2023-05-24T17:46:06.771Z,25.17
2023-05-24T17:48:38.983Z,25.12
2023-05-24T17:51:08.051Z,25.09
2023-05-24T17:53:37.034Z,25.08
2023-05-24T17:56:05.492Z,25.09
2023-05-24T17:58:36.839Z,25.03
2023-05-24T18:01:06.400Z,25.02
2023-05-24T18:03:36.830Z,25.02
2023-05-24T18:06:07.124Z,25.03
2023-05-24T18:08:37.558Z,25.05
2023-05-24T18:11:08.645Z,25.08
2023-05-24T18:13:42.235Z,25.06
2023-05-24T18:16:13.231Z,25.07
2023-05-24T18:18:41.665Z,25.09
2023-05-24T18:21:10.156Z,25.03
2023-05-24T18:23:38.591Z,25.07
2023-05-24T18:26:08.344Z,25.13
2023-05-24T18:28:39.121Z,25.14
2023-05-24T18:31:15.105Z,25.11
2023-05-24T18:33:43.436Z,25.18
2023-05-24T18:36:12.942Z,25.18
2023-05-24T18:38:40.936Z,25.22
2023-05-24T18:41:12.565Z,25.14
2023-05-24T18:43:40.424Z,25.11
2023-05-24T18:46:09.270Z,25.10
2023-05-24T18:48:37.056Z,25.02
2023-05-24T18:51:05.963Z,24.96
2023-05-24T18:53:34.264Z,24.84
2023-05-24T18:56:02.362Z,24.78
2023-05-24T18:58:31.082Z,24.77
2023-05-24T19:00:59.503Z,24.78
2023-05-24T19:03:29.585Z,24.73
2023-05-24T19:05:58.047Z,24.78
2023-05-24T19:08:25.931Z,24.77
2023-05-24T19:10:54.122Z,24.71
2023-05-24T19:13:21.911Z,24.75
2023-05-24T19:15:49.461Z,24.74
2023-05-24T19:18:17.584Z,24.59
2023-05-24T19:20:45.563Z,24.47
2023-05-24T19:23:16.300Z,24.43
2023-05-24T19:25:44.437Z,24.35
2023-05-24T19:28:12.469Z,24.34
2023-05-24T19:30:40.166Z,24.30
2023-05-24T19:33:08.035Z,24.27
2023-05-24T19:35:36.778Z,24.23
2023-05-24T19:38:04.552Z,24.15
2023-05-24T19:40:32.583Z,24.06
2023-05-24T19:43:00.356Z,24.00
2023-05-24T19:45:28.171Z,24.10
2023-05-24T19:47:55.950Z,23.99
2023-05-24T19:50:23.666Z,23.97
2023-05-24T19:52:51.380Z,23.96
2023-05-24T19:55:19.069Z,23.92
2023-05-24T19:57:46.696Z,23.85
2023-05-24T20:00:14.892Z,23.41
2023-05-24T20:02:42.843Z,23.01
2023-05-24T20:05:11.539Z,22.85
2023-05-24T20:07:39.352Z,22.79
2023-05-24T20:10:08.931Z,22.74
2023-05-24T20:12:36.732Z,22.70
2023-05-24T20:15:08.166Z,22.66
2023-05-24T20:17:36.081Z,22.66
2023-05-24T20:20:04.692Z,22.63
2023-05-24T20:22:32.469Z,22.60
2023-05-24T20:25:00.342Z,22.76
2023-05-24T20:27:28.276Z,23.14
2023-05-24T20:29:56.695Z,23.23
2023-05-24T20:32:24.499Z,23.17
2023-05-24T20:34:52.382Z,23.17
2023-05-24T20:37:20.163Z,23.20
2023-05-24T20:39:48.126Z,23.13
2023-05-24T20:42:16.386Z,23.04
2023-05-24T20:44:44.450Z,23.11
2023-05-24T20:47:12.313Z,23.11
2023-05-24T20:49:40.186Z,23.19
2023-05-24T20:52:08.119Z,23.28
2023-05-24T20:54:36.442Z,23.33
2023-05-24T20:57:04.447Z,23.37
2023-05-24T20:59:32.247Z,23.46
2023-05-24T21:02:00.132Z,23.64
2023-05-24T21:04:27.919Z,23.07
2023-05-24T21:06:56.107Z,23.22
2023-05-24T21:09:23.999Z,23.65
2023-05-24T21:11:51.983Z,23.74
2023-05-24T21:14:19.828Z,23.80
2023-05-24T21:16:47.721Z,23.86
2023-05-24T21:19:15.567Z,23.89
2023-05-24T21:21:43.637Z,23.91
2023-05-24T21:24:11.365Z,23.94
2023-05-24T21:26:39.156Z,23.91
2023-05-24T21:29:06.945Z,23.88
2023-05-24T21:31:36.049Z,23.87
2023-05-24T21:34:04.008Z,23.86
2023-05-24T21:36:31.948Z,23.47
2023-05-24T21:38:59.775Z,22.86
2023-05-24T21:41:27.625Z,22.68
2023-05-24T21:43:55.428Z,22.54
2023-05-24T21:46:23.324Z,22.49
2023-05-24T21:48:51.124Z,22.48
2023-05-24T21:51:19.213Z,22.43
2023-05-24T21:53:47.046Z,22.36
2023-05-24T21:56:14.904Z,22.29
2023-05-24T21:58:42.738Z,22.27
2023-05-24T22:01:10.457Z,22.26
2023-05-24T22:03:38.538Z,22.24
2023-05-24T22:06:06.553Z,22.20
2023-05-24T22:08:34.450Z,22.16
2023-05-24T22:11:02.271Z,22.13
2023-05-24T22:13:30.061Z,22.03
2023-05-24T22:15:58.054Z,22.03
2023-05-24T22:18:28.591Z,22.01
2023-05-24T22:20:58.490Z,21.98
2023-05-24T22:23:26.721Z,21.94
2023-05-24T22:25:54.552Z,21.91
2023-05-24T22:28:22.153Z,21.89
2023-05-24T22:30:49.783Z,21.83
2023-05-24T22:33:17.475Z,21.84
2023-05-24T22:35:45.404Z,21.81
2023-05-24T22:38:13.432Z,21.76
2023-05-24T22:40:42.417Z,21.73
2023-05-24T22:43:10.160Z,21.69
2023-05-24T22:45:37.866Z,21.69
2023-05-24T22:48:05.710Z,21.70
2023-05-24T22:50:33.424Z,21.72
2023-05-24T22:53:01.104Z,21.72
2023-05-24T22:55:28.831Z,21.71
2023-05-24T22:57:56.463Z,21.70
2023-05-24T23:00:24.309Z,21.70
2023-05-24T23:02:52.122Z,21.68
2023-05-24T23:05:21.813Z,21.67
2023-05-24T23:07:49.630Z,21.66
2023-05-24T23:10:17.268Z,21.67
2023-05-24T23:12:44.978Z,21.64
2023-05-24T23:15:16.908Z,21.58
2023-05-24T23:17:44.703Z,21.60
2023-05-24T23:20:14.705Z,21.57
2023-05-24T23:22:42.631Z,21.57
2023-05-24T23:25:10.831Z,21.58
2023-05-24T23:27:38.435Z,21.57
2023-05-24T23:30:07.067Z,21.51
2023-05-24T23:32:35.223Z,21.59
2023-05-24T23:35:02.941Z,21.54
2023-05-24T23:37:30.826Z,21.54
2023-05-24T23:40:02.505Z,21.55
2023-05-24T23:42:30.200Z,21.54
2023-05-24T23:44:57.838Z,21.58
2023-05-24T23:47:25.571Z,21.57
2023-05-24T23:49:53.332Z,21.93
2023-05-24T23:52:21.069Z,22.17
2023-05-24T23:54:48.828Z,22.31
2023-05-24T23:57:17.673Z,22.40
2023-05-24T23:59:45.213Z,22.32
